sensor_id;sensor_type;location;lat;lon;timestamp;pressure;altitude;pressure_sealevel;temperature;humidity
29385;BME280;16367;48.736;9.218;2022-08-11T00:01:34;-23809.59;;;20.38;47.08
29385;BME280;16367;48.736;9.218;2022-08-11T00:03:42;-23804.88;;;20.23;47.91
29385;BME280;16367;48.736;9.218;2022-08-11T00:05:47;-23805.97;;;20.26;47.40
29385;BME280;16367;48.736;9.218;2022-08-11T00:07:53;-23807.06;;;20.30;47.18
29385;BME280;16367;48.736;9.218;2022-08-11T00:09:58;-23805.81;;;20.26;47.51
29385;BME280;16367;48.736;9.218;2022-08-11T00:12:04;-23802.06;;;20.14;47.70
29385;BME280;16367;48.736;9.218;2022-08-11T00:14:16;-23802.69;;;20.16;48.08
29385;BME280;16367;48.736;9.218;2022-08-11T00:16:22;-23798.28;;;20.01;48.08
29385;BME280;16367;48.736;9.218;2022-08-11T00:18:26;-23796.72;;;19.96;48.33
29385;BME280;16367;48.736;9.218;2022-08-11T00:20:30;-23800.16;;;20.07;48.12
29385;BME280;16367;48.736;9.218;2022-08-11T00:22:34;-23797.03;;;19.97;48.21
29385;BME280;16367;48.736;9.218;2022-08-11T00:24:39;-23795.78;;;19.93;47.84
29385;BME280;16367;48.736;9.218;2022-08-11T00:26:56;-23794.38;;;19.89;48.48
29385;BME280;16367;48.736;9.218;2022-08-11T00:29:07;-23795.78;;;19.93;48.47
29385;BME280;16367;48.736;9.218;2022-08-11T00:31:22;-23793.25;;;19.85;48.28
29385;BME280;16367;48.736;9.218;2022-08-11T00:33:32;-23793.56;;;19.86;48.51
29385;BME280;16367;48.736;9.218;2022-08-11T00:35:46;-23793.41;;;19.86;48.72
29385;BME280;16367;48.736;9.218;2022-08-11T00:37:58;-23791.84;;;19.81;48.82
29385;BME280;16367;48.736;9.218;2022-08-11T00:40:02;-23791.06;;;19.78;48.74
29385;BME280;16367;48.736;9.218;2022-08-11T00:42:15;-23792.94;;;19.84;48.74
29385;BME280;16367;48.736;9.218;2022-08-11T00:44:28;-23791.06;;;19.78;48.90
29385;BME280;16367;48.736;9.218;2022-08-11T00:46:39;-23790.13;;;19.75;48.87
29385;BME280;16367;48.736;9.218;2022-08-11T00:49:04;-23790.13;;;19.75;49.11
29385;BME280;16367;48.736;9.218;2022-08-11T00:51:17;-23789.03;;;19.72;49.20
29385;BME280;16367;48.736;9.218;2022-08-11T00:53:32;-23788.09;;;19.69;49.31
29385;BME280;16367;48.736;9.218;2022-08-11T00:58:49;-23787.13;;;19.66;49.75
29385;BME280;16367;48.736;9.218;2022-08-11T01:01:08;-23787.91;;;19.68;49.62
29385;BME280;16367;48.736;9.218;2022-08-11T01:03:18;-23785.41;;;19.60;50.10
29385;BME280;16367;48.736;9.218;2022-08-11T01:05:55;-23785.72;;;19.61;49.99
29385;BME280;16367;48.736;9.218;2022-08-11T01:08:29;-23786.03;;;19.62;50.07
29385;BME280;16367;48.736;9.218;2022-08-11T01:10:54;-23781.34;;;19.47;50.30
29385;BME280;16367;48.736;9.218;2022-08-11T01:13:09;-23782.59;;;19.51;50.58
29385;BME280;16367;48.736;9.218;2022-08-11T01:15:39;-23781.50;;;19.48;50.60
29385;BME280;16367;48.736;9.218;2022-08-11T01:18:20;-23781.50;;;19.48;50.63
29385;BME280;16367;48.736;9.218;2022-08-11T01:26:14;-23782.91;;;19.52;51.11
29385;BME280;16367;48.736;9.218;2022-08-11T01:31:30;-23782.75;;;19.52;51.51
29385;BME280;16367;48.736;9.218;2022-08-11T01:41:53;-23783.22;;;19.53;52.13
29385;BME280;16367;48.736;9.218;2022-08-11T01:46:46;-23783.06;;;19.53;52.15
29385;BME280;16367;48.736;9.218;2022-08-11T01:48:57;-23782.75;;;19.52;52.24
29385;BME280;16367;48.736;9.218;2022-08-11T01:51:34;-23780.88;;;19.46;52.37
29385;BME280;16367;48.736;9.218;2022-08-11T01:53:52;-23779.59;;;19.42;52.34
29385;BME280;16367;48.736;9.218;2022-08-11T01:56:08;-23778.81;;;19.39;52.76
29385;BME280;16367;48.736;9.218;2022-08-11T01:58:21;-23778.03;;;19.37;52.62
29385;BME280;16367;48.736;9.218;2022-08-11T02:00:51;-23776.31;;;19.31;53.04
29385;BME280;16367;48.736;9.218;2022-08-11T02:03:00;-23776.63;;;19.32;52.74
29385;BME280;16367;48.736;9.218;2022-08-11T02:05:17;-23775.19;;;19.27;52.95
29385;BME280;16367;48.736;9.218;2022-08-11T02:07:32;-23773.47;;;19.22;53.35
29385;BME280;16367;48.736;9.218;2022-08-11T02:09:55;-23772.06;;;19.17;53.75
29385;BME280;16367;48.736;9.218;2022-08-11T02:12:23;-23772.84;;;19.20;53.49
29385;BME280;16367;48.736;9.218;2022-08-11T02:14:47;-23771.75;;;19.16;53.73
29385;BME280;16367;48.736;9.218;2022-08-11T02:17:14;-23772.22;;;19.18;53.77
29385;BME280;16367;48.736;9.218;2022-08-11T02:19:23;-23769.69;;;19.10;54.30
29385;BME280;16367;48.736;9.218;2022-08-11T02:21:51;-23771.59;;;19.16;53.90
29385;BME280;16367;48.736;9.218;2022-08-11T02:24:16;-23770.00;;;19.11;54.06
29385;BME280;16367;48.736;9.218;2022-08-11T02:26:29;-23767.97;;;19.04;54.51
29385;BME280;16367;48.736;9.218;2022-08-11T02:28:48;-23768.59;;;19.06;53.82
29385;BME280;16367;48.736;9.218;2022-08-11T02:31:01;-23769.38;;;19.09;54.08
29385;BME280;16367;48.736;9.218;2022-08-11T02:33:42;-23768.44;;;19.06;54.18
29385;BME280;16367;48.736;9.218;2022-08-11T02:35:48;-23769.53;;;19.09;54.06
29385;BME280;16367;48.736;9.218;2022-08-11T02:38:05;-23767.19;;;19.02;54.33
29385;BME280;16367;48.736;9.218;2022-08-11T02:40:28;-23765.47;;;18.96;54.53
29385;BME280;16367;48.736;9.218;2022-08-11T02:42:38;-23763.09;;;18.89;54.88
29385;BME280;16367;48.736;9.218;2022-08-11T02:44:50;-23759.34;;;18.77;55.42
29385;BME280;16367;48.736;9.218;2022-08-11T02:47:06;-23757.44;;;18.71;55.56
29385;BME280;16367;48.736;9.218;2022-08-11T02:49:13;-23754.31;;;18.60;56.09
29385;BME280;16367;48.736;9.218;2022-08-11T02:51:39;-23752.72;;;18.55;56.45
29385;BME280;16367;48.736;9.218;2022-08-11T02:53:50;-23750.53;;;18.48;56.75
29385;BME280;16367;48.736;9.218;2022-08-11T02:56:05;-23752.09;;;18.53;56.33
29385;BME280;16367;48.736;9.218;2022-08-11T02:58:13;-23748.00;;;18.40;56.67
29385;BME280;16367;48.736;9.218;2022-08-11T03:00:25;-23749.59;;;18.45;56.49
29385;BME280;16367;48.736;9.218;2022-08-11T03:02:53;-23749.91;;;18.46;56.60
29385;BME280;16367;48.736;9.218;2022-08-11T03:05:04;-23751.63;;;18.52;56.51
29385;BME280;16367;48.736;9.218;2022-08-11T03:07:18;-23749.75;;;18.46;56.90
29385;BME280;16367;48.736;9.218;2022-08-11T03:09:42;-23746.13;;;18.34;57.17
29385;BME280;16367;48.736;9.218;2022-08-11T03:11:53;-23746.13;;;18.34;57.32
29385;BME280;16367;48.736;9.218;2022-08-11T03:14:19;-23746.75;;;18.36;57.30
29385;BME280;16367;48.736;9.218;2022-08-11T03:16:45;-23743.78;;;18.27;57.57
29385;BME280;16367;48.736;9.218;2022-08-11T03:19:02;-23741.25;;;18.19;57.48
29385;BME280;16367;48.736;9.218;2022-08-11T03:21:11;-23740.78;;;18.17;57.86
29385;BME280;16367;48.736;9.218;2022-08-11T03:23:26;-23742.03;;;18.21;57.70
29385;BME280;16367;48.736;9.218;2022-08-11T03:25:35;-23742.66;;;18.23;57.74
29385;BME280;16367;48.736;9.218;2022-08-11T03:27:49;-23742.66;;;18.23;57.76
29385;BME280;16367;48.736;9.218;2022-08-11T03:30:03;-23740.47;;;18.16;58.10
29385;BME280;16367;48.736;9.218;2022-08-11T03:32:18;-23738.56;;;18.10;58.46
29385;BME280;16367;48.736;9.218;2022-08-11T03:34:24;-23738.41;;;18.10;58.39
29385;BME280;16367;48.736;9.218;2022-08-11T03:39:22;-23735.44;;;18.00;59.25
29385;BME280;16367;48.736;9.218;2022-08-11T03:41:33;-23734.50;;;17.97;59.47
29385;BME280;16367;48.736;9.218;2022-08-11T03:44:15;-23731.19;;;17.86;60.03
29385;BME280;16367;48.736;9.218;2022-08-11T03:46:28;-23733.84;;;17.95;59.75
29385;BME280;16367;48.736;9.218;2022-08-11T03:48:48;-23731.50;;;17.88;59.99
29385;BME280;16367;48.736;9.218;2022-08-11T03:51:06;-23733.84;;;17.95;59.71
29385;BME280;16367;48.736;9.218;2022-08-11T03:53:18;-23732.28;;;17.90;59.73
29385;BME280;16367;48.736;9.218;2022-08-11T03:55:45;-23730.41;;;17.84;59.98
29385;BME280;16367;48.736;9.218;2022-08-11T04:00:47;-23734.81;;;17.98;59.20
29385;BME280;16367;48.736;9.218;2022-08-11T04:03:32;-23729.63;;;17.81;60.52
29385;BME280;16367;48.736;9.218;2022-08-11T04:06:20;-23729.94;;;17.82;60.00
29385;BME280;16367;48.736;9.218;2022-08-11T04:11:24;-23733.22;;;17.93;59.69
29385;BME280;16367;48.736;9.218;2022-08-11T04:14:10;-23734.19;;;17.96;59.41
29385;BME280;16367;48.736;9.218;2022-08-11T04:16:40;-23733.38;;;17.94;59.69
29385;BME280;16367;48.736;9.218;2022-08-11T04:19:12;-23732.13;;;17.90;59.98
29385;BME280;16367;48.736;9.218;2022-08-11T04:21:56;-23734.50;;;17.97;59.63
29385;BME280;16367;48.736;9.218;2022-08-11T04:24:31;-23734.31;;;17.97;59.74
29385;BME280;16367;48.736;9.218;2022-08-11T04:29:38;-23736.69;;;18.04;59.63
29385;BME280;16367;48.736;9.218;2022-08-11T04:32:25;-23741.09;;;18.18;59.01
29385;BME280;16367;48.736;9.218;2022-08-11T04:34:50;-23738.72;;;18.11;58.89
29385;BME280;16367;48.736;9.218;2022-08-11T04:40:02;-23738.91;;;18.11;59.42
29385;BME280;16367;48.736;9.218;2022-08-11T04:42:39;-23738.56;;;18.10;59.70
29385;BME280;16367;48.736;9.218;2022-08-11T04:45:44;-23736.06;;;18.02;59.37
29385;BME280;16367;48.736;9.218;2022-08-11T04:48:04;-23739.53;;;18.13;59.64
29385;BME280;16367;48.736;9.218;2022-08-11T04:50:38;-23740.63;;;18.17;59.99
29385;BME280;16367;48.736;9.218;2022-08-11T04:53:40;-23739.84;;;18.14;59.79
29385;BME280;16367;48.736;9.218;2022-08-11T04:56:08;-23739.22;;;18.12;60.13
29385;BME280;16367;48.736;9.218;2022-08-11T04:58:48;-23740.16;;;18.15;60.35
29385;BME280;16367;48.736;9.218;2022-08-11T05:01:23;-23745.19;;;18.31;59.32
29385;BME280;16367;48.736;9.218;2022-08-11T05:04:10;-23748.94;;;18.43;58.91
29385;BME280;16367;48.736;9.218;2022-08-11T05:07:00;-23752.56;;;18.55;58.69
29385;BME280;16367;48.736;9.218;2022-08-11T05:09:28;-23755.25;;;18.64;58.40
29385;BME280;16367;48.736;9.218;2022-08-11T05:12:01;-23759.50;;;18.77;58.38
29385;BME280;16367;48.736;9.218;2022-08-11T05:14:31;-23760.28;;;18.80;58.21
29385;BME280;16367;48.736;9.218;2022-08-11T05:16:55;-23759.81;;;18.78;58.23
29385;BME280;16367;48.736;9.218;2022-08-11T05:19:28;-23761.84;;;18.85;57.70
29385;BME280;16367;48.736;9.218;2022-08-11T05:21:52;-23764.03;;;18.92;57.31
29385;BME280;16367;48.736;9.218;2022-08-11T05:24:19;-23765.16;;;18.95;57.71
29385;BME280;16367;48.736;9.218;2022-08-11T05:26:44;-23770.16;;;19.11;57.24
29385;BME280;16367;48.736;9.218;2022-08-11T05:29:27;-23767.66;;;19.03;57.11
29385;BME280;16367;48.736;9.218;2022-08-11T05:31:56;-23769.69;;;19.10;56.74
29385;BME280;16367;48.736;9.218;2022-08-11T05:34:21;-23772.84;;;19.20;56.88
29385;BME280;16367;48.736;9.218;2022-08-11T05:36:45;-23774.09;;;19.24;57.45
29385;BME280;16367;48.736;9.218;2022-08-11T05:38:59;-23775.34;;;19.28;57.19
29385;BME280;16367;48.736;9.218;2022-08-11T05:41:37;-23774.09;;;19.24;57.22
29385;BME280;16367;48.736;9.218;2022-08-11T05:43:59;-23777.56;;;19.35;57.05
29385;BME280;16367;48.736;9.218;2022-08-11T05:46:26;-23775.19;;;19.27;57.76
29385;BME280;16367;48.736;9.218;2022-08-11T05:48:47;-23779.59;;;19.42;57.21
29385;BME280;16367;48.736;9.218;2022-08-11T05:51:08;-23780.69;;;19.45;56.72
29385;BME280;16367;48.736;9.218;2022-08-11T05:53:31;-23783.69;;;19.55;56.01
29385;BME280;16367;48.736;9.218;2022-08-11T05:55:52;-23785.56;;;19.61;56.29
29385;BME280;16367;48.736;9.218;2022-08-11T05:58:12;-23786.19;;;19.63;56.12
29385;BME280;16367;48.736;9.218;2022-08-11T06:00:15;-23790.44;;;19.76;55.99
29385;BME280;16367;48.736;9.218;2022-08-11T06:02:20;-23787.28;;;19.66;56.15
29385;BME280;16367;48.736;9.218;2022-08-11T06:04:23;-23792.47;;;19.83;55.70
29385;BME280;16367;48.736;9.218;2022-08-11T06:06:27;-23792.16;;;19.82;55.54
29385;BME280;16367;48.736;9.218;2022-08-11T06:08:32;-23794.19;;;19.88;55.66
29385;BME280;16367;48.736;9.218;2022-08-11T06:10:38;-23800.78;;;20.09;55.15
29385;BME280;16367;48.736;9.218;2022-08-11T06:12:42;-23803.47;;;20.18;54.43
29385;BME280;16367;48.736;9.218;2022-08-11T06:14:45;-23798.75;;;20.03;55.58
29385;BME280;16367;48.736;9.218;2022-08-11T06:16:53;-23805.19;;;20.24;54.80
29385;BME280;16367;48.736;9.218;2022-08-11T06:18:58;-23811.47;;;20.44;53.76
29385;BME280;16367;48.736;9.218;2022-08-11T06:21:08;-23815.84;;;20.58;53.99
29385;BME280;16367;48.736;9.218;2022-08-11T06:23:11;-23821.97;;;20.77;53.31
29385;BME280;16367;48.736;9.218;2022-08-11T06:25:16;-23830.13;;;21.04;52.53
29385;BME280;16367;48.736;9.218;2022-08-11T06:27:20;-23825.91;;;20.90;53.08
29385;BME280;16367;48.736;9.218;2022-08-11T06:29:25;-23843.13;;;21.45;51.87
29385;BME280;16367;48.736;9.218;2022-08-11T06:31:54;-23853.16;;;21.78;51.33
29385;BME280;16367;48.736;9.218;2022-08-11T06:34:14;-23861.31;;;22.04;49.94
29385;BME280;16367;48.736;9.218;2022-08-11T06:36:32;-23870.09;;;22.32;49.85
29385;BME280;16367;48.736;9.218;2022-08-11T06:38:45;-23861.47;;;22.04;49.81
29385;BME280;16367;48.736;9.218;2022-08-11T06:40:53;-23846.91;;;21.58;51.10
29385;BME280;16367;48.736;9.218;2022-08-11T06:43:17;-23849.25;;;21.65;51.15
29385;BME280;16367;48.736;9.218;2022-08-11T06:45:29;-23859.91;;;21.99;50.64
29385;BME280;16367;48.736;9.218;2022-08-11T06:47:32;-23861.16;;;22.03;50.41
29385;BME280;16367;48.736;9.218;2022-08-11T06:49:42;-23851.59;;;21.73;50.97
29385;BME280;16367;48.736;9.218;2022-08-11T06:52:05;-23856.00;;;21.87;50.80
29385;BME280;16367;48.736;9.218;2022-08-11T06:54:29;-23869.47;;;22.30;49.74
29385;BME280;16367;48.736;9.218;2022-08-11T06:56:35;-23859.75;;;21.99;49.84
29385;BME280;16367;48.736;9.218;2022-08-11T06:59:18;-23878.84;;;22.60;49.13
29385;BME280;16367;48.736;9.218;2022-08-11T07:01:49;-23874.47;;;22.46;49.31
29385;BME280;16367;48.736;9.218;2022-08-11T07:04:04;-23888.88;;;22.92;49.01
29385;BME280;16367;48.736;9.218;2022-08-11T07:06:17;-23897.63;;;23.21;47.39
29385;BME280;16367;48.736;9.218;2022-08-11T07:08:44;-23897.00;;;23.19;47.72
29385;BME280;16367;48.736;9.218;2022-08-11T07:11:39;-23882.28;;;22.71;47.99
29385;BME280;16367;48.736;9.218;2022-08-11T07:14:03;-23884.16;;;22.77;48.31
29385;BME280;16367;48.736;9.218;2022-08-11T07:16:30;-23913.56;;;23.72;46.30
29385;BME280;16367;48.736;9.218;2022-08-11T07:18:36;-23904.19;;;23.42;46.73
29385;BME280;16367;48.736;9.218;2022-08-11T07:21:07;-23904.97;;;23.44;47.23
29385;BME280;16367;48.736;9.218;2022-08-11T07:23:50;-23907.47;;;23.52;46.93
29385;BME280;16367;48.736;9.218;2022-08-11T07:26:13;-23905.91;;;23.47;47.28
29385;BME280;16367;48.736;9.218;2022-08-11T07:28:36;-23934.34;;;24.39;45.73
29385;BME280;16367;48.736;9.218;2022-08-11T07:31:03;-23985.84;;;26.05;42.59
29385;BME280;16367;48.736;9.218;2022-08-11T07:33:10;-24001.75;;;26.56;41.45
29385;BME280;16367;48.736;9.218;2022-08-11T07:35:36;-23993.97;;;26.31;42.01
29385;BME280;16367;48.736;9.218;2022-08-11T07:37:41;-23989.44;;;26.17;41.82
29385;BME280;16367;48.736;9.218;2022-08-11T07:39:47;-23984.59;;;26.01;42.71
29385;BME280;16367;48.736;9.218;2022-08-11T07:41:53;-24022.13;;;27.22;40.89
29385;BME280;16367;48.736;9.218;2022-08-11T07:43:58;-24038.03;;;27.74;39.46
29385;BME280;16367;48.736;9.218;2022-08-11T07:46:10;-24061.97;;;28.51;38.34
29385;BME280;16367;48.736;9.218;2022-08-11T07:48:32;-24009.06;;;26.80;40.13
29385;BME280;16367;48.736;9.218;2022-08-11T07:50:53;-24024.31;;;27.29;39.48
29385;BME280;16367;48.736;9.218;2022-08-11T07:53:15;-24036.00;;;27.67;39.10
29385;BME280;16367;48.736;9.218;2022-08-11T07:55:21;-24027.75;;;27.41;39.13
29385;BME280;16367;48.736;9.218;2022-08-11T07:57:47;-24000.34;;;26.52;40.87
29385;BME280;16367;48.736;9.218;2022-08-11T08:00:20;-24039.25;;;27.78;38.54
29385;BME280;16367;48.736;9.218;2022-08-11T08:02:42;-24058.06;;;28.39;37.53
29385;BME280;16367;48.736;9.218;2022-08-11T08:05:05;-24033.03;;;27.58;39.29
29385;BME280;16367;48.736;9.218;2022-08-11T08:07:26;-24011.09;;;26.87;40.54
29385;BME280;16367;48.736;9.218;2022-08-11T08:09:49;-24033.97;;;27.61;39.01
29385;BME280;16367;48.736;9.218;2022-08-11T08:12:17;-24027.75;;;27.41;39.17
29385;BME280;16367;48.736;9.218;2022-08-11T08:14:39;-24069.13;;;28.74;36.93
29385;BME280;16367;48.736;9.218;2022-08-11T08:17:02;-24037.41;;;27.72;38.61
29385;BME280;16367;48.736;9.218;2022-08-11T08:19:22;-24026.81;;;27.38;38.32
29385;BME280;16367;48.736;9.218;2022-08-11T08:21:26;-24089.91;;;29.42;36.09
29385;BME280;16367;48.736;9.218;2022-08-11T08:23:28;-24061.97;;;28.51;37.09
29385;BME280;16367;48.736;9.218;2022-08-11T08:25:38;-24058.84;;;28.41;37.75
29385;BME280;16367;48.736;9.218;2022-08-11T08:27:43;-24024.63;;;27.30;38.49
29385;BME280;16367;48.736;9.218;2022-08-11T08:29:46;-24044.53;;;27.95;37.77
29385;BME280;16367;48.736;9.218;2022-08-11T08:32:08;-24017.16;;;27.06;39.00
29385;BME280;16367;48.736;9.218;2022-08-11T08:34:13;-23990.06;;;26.19;39.83
29385;BME280;16367;48.736;9.218;2022-08-11T08:36:16;-24014.53;;;26.98;38.73
29385;BME280;16367;48.736;9.218;2022-08-11T08:38:20;-24032.56;;;27.56;38.26
29385;BME280;16367;48.736;9.218;2022-08-11T08:40:23;-24032.09;;;27.55;38.57
29385;BME280;16367;48.736;9.218;2022-08-11T08:42:28;-24031.78;;;27.54;38.46
29385;BME280;16367;48.736;9.218;2022-08-11T08:44:35;-24015.91;;;27.02;38.99
29385;BME280;16367;48.736;9.218;2022-08-11T08:46:48;-24017.31;;;27.07;39.00
29385;BME280;16367;48.736;9.218;2022-08-11T08:48:54;-24007.19;;;26.74;38.89
29385;BME280;16367;48.736;9.218;2022-08-11T08:51:04;-24024.94;;;27.31;37.91
29385;BME280;16367;48.736;9.218;2022-08-11T08:54:02;-24028.22;;;27.42;37.76
29385;BME280;16367;48.736;9.218;2022-08-11T08:56:08;-24055.75;;;28.31;36.95
29385;BME280;16367;48.736;9.218;2022-08-11T08:58:13;-24032.41;;;27.56;37.77
29385;BME280;16367;48.736;9.218;2022-08-11T09:00:18;-24061.03;;;28.48;36.45
29385;BME280;16367;48.736;9.218;2022-08-11T09:02:25;-24081.84;;;29.16;35.88
29385;BME280;16367;48.736;9.218;2022-08-11T09:04:35;-24051.25;;;28.17;36.48
29385;BME280;16367;48.736;9.218;2022-08-11T09:06:40;-24055.91;;;28.32;36.49
29385;BME280;16367;48.736;9.218;2022-08-11T09:08:49;-24073.47;;;28.89;35.26
29385;BME280;16367;48.736;9.218;2022-08-11T09:10:55;-24077.97;;;29.03;35.33
29385;BME280;16367;48.736;9.218;2022-08-11T09:13:17;-24075.31;;;28.95;35.05
29385;BME280;16367;48.736;9.218;2022-08-11T09:15:23;-24059.16;;;28.42;35.54
29385;BME280;16367;48.736;9.218;2022-08-11T09:17:28;-24085.88;;;29.29;35.15
29385;BME280;16367;48.736;9.218;2022-08-11T09:19:31;-24071.44;;;28.82;35.23
29385;BME280;16367;48.736;9.218;2022-08-11T09:21:34;-24022.47;;;27.23;36.33
29385;BME280;16367;48.736;9.218;2022-08-11T09:23:51;-24050.47;;;28.14;35.36
29385;BME280;16367;48.736;9.218;2022-08-11T09:26:25;-24064.59;;;28.60;35.81
29385;BME280;16367;48.736;9.218;2022-08-11T09:28:46;-24067.88;;;28.70;34.67
29385;BME280;16367;48.736;9.218;2022-08-11T09:30:52;-24100.31;;;29.76;33.61
29385;BME280;16367;48.736;9.218;2022-08-11T09:32:57;-24105.59;;;29.93;33.55
29385;BME280;16367;48.736;9.218;2022-08-11T09:35:01;-24080.59;;;29.12;35.08
29385;BME280;16367;48.736;9.218;2022-08-11T09:37:05;-24087.75;;;29.35;33.69
29385;BME280;16367;48.736;9.218;2022-08-11T09:39:48;-24122.81;;;30.49;32.01
29385;BME280;16367;48.736;9.218;2022-08-11T09:42:12;-24107.63;;;29.99;33.23
29385;BME280;16367;48.736;9.218;2022-08-11T09:44:17;-24117.84;;;30.33;32.30
29385;BME280;16367;48.736;9.218;2022-08-11T09:46:40;-24096.75;;;29.64;33.03
29385;BME280;16367;48.736;9.218;2022-08-11T09:48:44;-24096.59;;;29.64;32.91
29385;BME280;16367;48.736;9.218;2022-08-11T09:50:49;-24110.72;;;30.09;32.59
29385;BME280;16367;48.736;9.218;2022-08-11T09:52:53;-24092.41;;;29.50;33.47
29385;BME280;16367;48.736;9.218;2022-08-11T09:55:16;-24117.38;;;30.31;32.29
29385;BME280;16367;48.736;9.218;2022-08-11T09:57:21;-24061.19;;;28.49;34.22
29385;BME280;16367;48.736;9.218;2022-08-11T09:59:41;-24059.78;;;28.44;33.77
29385;BME280;16367;48.736;9.218;2022-08-11T10:01:48;-24066.31;;;28.65;34.81
29385;BME280;16367;48.736;9.218;2022-08-11T10:03:55;-24090.84;;;29.45;33.30
29385;BME280;16367;48.736;9.218;2022-08-11T10:06:01;-24066.94;;;28.67;33.78
29385;BME280;16367;48.736;9.218;2022-08-11T10:08:37;-24096.75;;;29.64;32.34
29385;BME280;16367;48.736;9.218;2022-08-11T10:10:41;-24087.28;;;29.33;33.60
29385;BME280;16367;48.736;9.218;2022-08-11T10:12:49;-24076.72;;;28.99;33.48
29385;BME280;16367;48.736;9.218;2022-08-11T10:14:54;-24086.97;;;29.32;33.04
29385;BME280;16367;48.736;9.218;2022-08-11T10:17:19;-24050.78;;;28.15;33.69
29385;BME280;16367;48.736;9.218;2022-08-11T10:19:25;-24069.72;;;28.76;33.32
29385;BME280;16367;48.736;9.218;2022-08-11T10:21:34;-24099.53;;;29.73;31.84
29385;BME280;16367;48.736;9.218;2022-08-11T10:23:38;-24091.16;;;29.46;32.14
29385;BME280;16367;48.736;9.218;2022-08-11T10:26:07;-24065.69;;;28.63;33.04
29385;BME280;16367;48.736;9.218;2022-08-11T10:28:34;-24091.16;;;29.46;32.54
29385;BME280;16367;48.736;9.218;2022-08-11T10:30:58;-24115.06;;;30.23;32.55
29385;BME280;16367;48.736;9.218;2022-08-11T10:33:20;-24093.34;;;29.53;32.34
29385;BME280;16367;48.736;9.218;2022-08-11T10:35:58;-24068.50;;;28.72;33.85
29385;BME280;16367;48.736;9.218;2022-08-11T10:38:02;-24069.13;;;28.74;33.51
29385;BME280;16367;48.736;9.218;2022-08-11T10:40:19;-24075.94;;;28.97;33.95
29385;BME280;16367;48.736;9.218;2022-08-11T10:42:23;-24069.28;;;28.75;33.46
29385;BME280;16367;48.736;9.218;2022-08-11T10:44:59;-24065.06;;;28.61;34.53
29385;BME280;16367;48.736;9.218;2022-08-11T10:47:03;-24075.00;;;28.94;34.68
29385;BME280;16367;48.736;9.218;2022-08-11T10:49:25;-24041.59;;;27.85;34.88
29385;BME280;16367;48.736;9.218;2022-08-11T10:51:30;-24060.72;;;28.47;34.76
29385;BME280;16367;48.736;9.218;2022-08-11T10:53:54;-24046.88;;;28.02;34.87
29385;BME280;16367;48.736;9.218;2022-08-11T10:56:15;-24048.75;;;28.09;34.53
29385;BME280;16367;48.736;9.218;2022-08-11T10:58:37;-24052.78;;;28.22;35.06
29385;BME280;16367;48.736;9.218;2022-08-11T11:00:52;-24046.72;;;28.02;34.79
29385;BME280;16367;48.736;9.218;2022-08-11T11:02:57;-24050.31;;;28.14;34.75
29385;BME280;16367;48.736;9.218;2022-08-11T11:05:26;-24046.72;;;28.02;34.00
29385;BME280;16367;48.736;9.218;2022-08-11T11:07:36;-24027.44;;;27.40;35.69
29385;BME280;16367;48.736;9.218;2022-08-11T11:09:48;-24032.41;;;27.56;35.40
29385;BME280;16367;48.736;9.218;2022-08-11T11:11:53;-24030.88;;;27.51;35.04
29385;BME280;16367;48.736;9.218;2022-08-11T11:14:17;-24044.53;;;27.95;34.72
29385;BME280;16367;48.736;9.218;2022-08-11T11:16:47;-24043.00;;;27.90;34.88
29385;BME280;16367;48.736;9.218;2022-08-11T11:19:09;-24050.78;;;28.15;34.68
29385;BME280;16367;48.736;9.218;2022-08-11T11:21:18;-24047.34;;;28.04;34.22
29385;BME280;16367;48.736;9.218;2022-08-11T11:23:24;-24056.38;;;28.33;33.63
29385;BME280;16367;48.736;9.218;2022-08-11T11:25:42;-24046.41;;;28.01;33.59
29385;BME280;16367;48.736;9.218;2022-08-11T11:28:18;-24063.06;;;28.55;33.06
29385;BME280;16367;48.736;9.218;2022-08-11T11:30:26;-24052.94;;;28.22;33.33
29385;BME280;16367;48.736;9.218;2022-08-11T11:32:40;-24038.94;;;27.77;34.04
29385;BME280;16367;48.736;9.218;2022-08-11T11:35:23;-24047.34;;;28.04;33.22
29385;BME280;16367;48.736;9.218;2022-08-11T11:37:32;-24063.50;;;28.56;32.74
29385;BME280;16367;48.736;9.218;2022-08-11T11:39:36;-24064.44;;;28.59;33.54
29385;BME280;16367;48.736;9.218;2022-08-11T11:41:40;-24066.63;;;28.66;32.69
29385;BME280;16367;48.736;9.218;2022-08-11T11:43:43;-24064.44;;;28.59;32.28
29385;BME280;16367;48.736;9.218;2022-08-11T11:45:47;-24058.38;;;28.40;32.71
29385;BME280;16367;48.736;9.218;2022-08-11T11:47:51;-24063.50;;;28.56;32.50
29385;BME280;16367;48.736;9.218;2022-08-11T11:49:55;-24058.84;;;28.41;31.71
29385;BME280;16367;48.736;9.218;2022-08-11T11:51:59;-24064.78;;;28.60;31.71
29385;BME280;16367;48.736;9.218;2022-08-11T11:54:03;-24076.41;;;28.98;31.76
29385;BME280;16367;48.736;9.218;2022-08-11T11:56:11;-24061.97;;;28.51;32.22
29385;BME280;16367;48.736;9.218;2022-08-11T11:58:14;-24063.84;;;28.57;32.58
29385;BME280;16367;48.736;9.218;2022-08-11T12:00:35;-24076.88;;;29.00;32.46
29385;BME280;16367;48.736;9.218;2022-08-11T12:03:07;-24084.19;;;29.23;31.68
29385;BME280;16367;48.736;9.218;2022-08-11T12:05:11;-24080.59;;;29.12;31.37
29385;BME280;16367;48.736;9.218;2022-08-11T12:07:15;-24046.09;;;28.00;32.31
29385;BME280;16367;48.736;9.218;2022-08-11T12:09:37;-24056.69;;;28.34;32.20
29385;BME280;16367;48.736;9.218;2022-08-11T12:11:41;-24059.78;;;28.44;32.14
29385;BME280;16367;48.736;9.218;2022-08-11T12:14:04;-24072.22;;;28.85;31.99
29385;BME280;16367;48.736;9.218;2022-08-11T12:16:13;-24071.91;;;28.84;32.24
29385;BME280;16367;48.736;9.218;2022-08-11T12:18:35;-24059.16;;;28.42;31.97
29385;BME280;16367;48.736;9.218;2022-08-11T12:20:38;-24067.88;;;28.70;32.36
29385;BME280;16367;48.736;9.218;2022-08-11T12:22:41;-24052.94;;;28.22;32.33
29385;BME280;16367;48.736;9.218;2022-08-11T12:25:04;-24060.72;;;28.47;32.01
29385;BME280;16367;48.736;9.218;2022-08-11T12:27:26;-24043.63;;;27.92;32.62
29385;BME280;16367;48.736;9.218;2022-08-11T12:29:29;-24063.22;;;28.55;31.83
29385;BME280;16367;48.736;9.218;2022-08-11T12:31:32;-24054.81;;;28.28;32.66
29385;BME280;16367;48.736;9.218;2022-08-11T12:33:36;-24057.00;;;28.35;31.63